Flight Track Log - Related Links

Times and Time Zones

All times are in EDT time to prevent confusion due to time zone crossing. See the CTA307 flight status page for this flight to view local times or setup timezone preferences in your user account.


Time Position Orientation Groundspeed Altitude Reporting Facility
EDT Latitude Longitude Course Direction KTS MPH feet Rate Location/Type
Thu 07:30:52 AM 33.4333 -111.9833 90° East 136 157 1,700  Level Phoenix TRACON
Thu 07:31:28 AM 33.4333 -111.9667 90° East 129 148 2,300 828 Climbing Phoenix TRACON
Thu 07:32:19 AM 33.4522 -111.9358 54° Northeast 146 168 2,900 589 Climbing Albuquerque Center
Thu 07:33:20 AM 33.4867 -111.9461 346° North 143 165 3,400 595 Climbing Albuquerque Center
Thu 07:34:20 AM 33.5133 -111.9808 313° West 141 162 4,100 750 Climbing Albuquerque Center
Thu 07:35:20 AM 33.5392 -112.0150 312° West 138 159 4,900 700 Climbing Albuquerque Center
Thu 07:36:20 AM 33.5706 -112.0511 316° Northwest 154 177 5,500 595 Climbing Albuquerque Center
Thu 07:37:21 AM 33.5997 -112.0875 314° West 151 174 6,100 645 Climbing Albuquerque Center
Thu 07:38:21 AM 33.6303 -112.1217 317° Northwest 151 174 6,800 650 Climbing Albuquerque Center
Thu 07:39:21 AM 33.6594 -112.1567 315° West 149 171 7,400 600 Climbing Albuquerque Center
Thu 07:40:21 AM 33.6897 -112.1911 317° Northwest 150 173 8,000 581 Climbing Albuquerque Center
Thu 07:42:27 AM 33.7539 -112.2653 316° Northwest 151 174 9,200 530 Climbing Los Angeles Center
Thu 07:43:22 AM 33.7831 -112.2978 317° Northwest 157 181 9,600 517 Climbing Albuquerque Center
Thu 07:44:23 AM 33.8153 -112.3361 315° West 162 186 10,200 496 Climbing Albuquerque Center
Thu 07:45:23 AM 33.8464 -112.3783 312° West 167 192 10,600 150 Climbing Albuquerque Center
Thu 07:46:23 AM 33.8831 -112.4236 314° West 186 214 10,500 -50 Descending Albuquerque Center
Thu 07:47:24 AM 33.9222 -112.4694 316° Northwest 195 224 10,500  Level Albuquerque Center
Thu 07:48:24 AM 33.9606 -112.5164 315° West 196 226 10,500 -50 Level Albuquerque Center
Thu 07:49:24 AM 34.0006 -112.5617 317° Northwest 196 226 10,400  Descending Albuquerque Center
Thu 07:50:24 AM 34.0386 -112.6092 314° West 197 227 10,500 50 Climbing Albuquerque Center
Thu 07:51:25 AM 34.0858 -112.6658 315° West 199 229 10,500  Level Albuquerque Center
Thu 07:52:25 AM 34.1261 -112.7144 315° West 203 234 10,500 -50 Level Albuquerque Center
Thu 07:53:25 AM 34.1689 -112.7631 317° Northwest 209 241 10,400 99 Descending Albuquerque Center
Thu 07:54:26 AM 34.2119 -112.8086 319° Northwest 207 238 10,700 149 Climbing Albuquerque Center
Thu 07:55:26 AM 34.2528 -112.8578 315° West 207 238 10,700  Level Albuquerque Center
Thu 07:56:26 AM 34.2928 -112.9081 314° West 206 237 10,700  Level Albuquerque Center
Thu 07:57:27 AM 34.3339 -112.9578 315° West 208 239 10,700  Level Albuquerque Center
Thu 07:58:27 AM 34.3742 -113.0097 313° West 211 243 10,700  Level Albuquerque Center
Thu 07:59:27 AM 34.4144 -113.0581 315° West 207 238 10,700  Level Albuquerque Center
Thu 08:00:28 AM 34.4525 -113.1050 315° West 207 238 10,700  Level Albuquerque Center
Thu 08:01:28 AM 34.4936 -113.1569 314° West 211 243 10,700  Level Albuquerque Center
Thu 08:02:28 AM 34.5322 -113.2092 312° West 211 243 10,700 -50 Level Albuquerque Center
Thu 08:03:29 AM 34.5733 -113.2581 316° Northwest 209 241 10,600  Descending Albuquerque Center
Thu 08:04:29 AM 34.6125 -113.3078 314° West 207 238 10,700  Climbing Albuquerque Center
Thu 08:05:29 AM 34.6506 -113.3575 313° West 205 236 10,600 -50 Descending Albuquerque Center
Thu 08:06:30 AM 34.6911 -113.4069 315° West 205 236 10,600 50 Level Albuquerque Center
Thu 08:07:30 AM 34.7292 -113.4575 312° West 204 235 10,700 50 Climbing Albuquerque Center
Thu 08:08:31 AM 34.7681 -113.5056 315° West 201 231 10,700 -50 Level Albuquerque Center
Thu 08:09:31 AM 34.8075 -113.5556 314° West 204 235 10,600 -50 Descending Albuquerque Center
Thu 08:10:31 AM 34.8450 -113.6064 312° West 203 234 10,600  Level Albuquerque Center
Thu 08:11:32 AM 34.8819 -113.6578 311° West 202 232 10,600 -50 Level Albuquerque Center
Thu 08:12:32 AM 34.9211 -113.7067 314° West 202 232 10,500  Descending Albuquerque Center
Thu 08:13:33 AM 34.9661 -113.7683 312° West 203 234 10,600 50 Climbing Albuquerque Center
Thu 08:14:33 AM 35.0044 -113.8167 314° West 200 230 10,600 -49 Level Albuquerque Center
Thu 08:15:36 AM 35.0425 -113.8689 312° West 202 232 10,500 -49 Descending Los Angeles Center
Thu 08:16:36 AM 35.0797 -113.9217 311° West 205 236 10,500  Level Los Angeles Center
Thu 08:17:36 AM 35.1161 -113.9703 312° West 200 230 10,500  Level Los Angeles Center
Thu 08:18:36 AM 35.1528 -114.0225 311° West 201 231 10,500  Level Los Angeles Center
Thu 08:19:37 AM 35.1903 -114.0714 313° West 198 228 10,500  Level Los Angeles Center
Thu 08:20:37 AM 35.2300 -114.1200 315° West 200 230 10,500  Level Los Angeles Center
Thu 08:21:37 AM 35.2667 -114.1717 311° West 201 231 10,500  Level Los Angeles Center
Thu 08:22:37 AM 35.3019 -114.2225 310° West 199 229 10,500  Level Los Angeles Center
Thu 08:23:38 AM 35.3394 -114.2733 312° West 199 229 10,500  Level Los Angeles Center
Thu 08:24:38 AM 35.3761 -114.3244 311° West 199 229 10,500  Level Los Angeles Center
Thu 08:25:38 AM 35.4119 -114.3756 311° West 199 229 10,500  Level Los Angeles Center
Thu 08:26:39 AM 35.4469 -114.4267 310° West 197 227 10,500 -50 Level Los Angeles Center
Thu 08:27:39 AM 35.4783 -114.4814 305° West 197 227 10,400 -50 Descending Los Angeles Center
Thu 08:28:39 AM 35.5139 -114.5317 311° West 196 226 10,400  Level Los Angeles Center
Thu 08:29:37 AM 35.5500 -114.5867 309° West 197 227 10,400  Level Los Angeles Center
Thu 08:30:37 AM 35.5875 -114.6378 312° West 197 227 10,400 -149 Level Los Angeles Center
Thu 08:31:38 AM 35.6242 -114.6864 313° West 195 224 10,100 -298 Descending Los Angeles Center
Thu 08:32:38 AM 35.6714 -114.7236 327° Northwest 202 232 9,800 -397 Descending Los Angeles Center
Thu 08:33:39 AM 35.7233 -114.7619 329° Northwest 205 236 9,300 -639 Descending Los Angeles Center
Thu 08:34:40 AM 35.7717 -114.8042 325° Northwest 214 246 8,500 -730 Descending Los Angeles Center
Thu 08:35:34 AM 35.8167 -114.8422 326° Northwest 214 246 7,900 -590 Descending Los Angeles Center
Thu 08:36:42 AM 35.8644 -114.8781 329° Northwest 213 245 7,300 -645 Descending Los Angeles Center
Thu 08:37:35 AM 35.9156 -114.9183 327° Northwest 206 237 6,600 -645 Descending Los Angeles Center
Thu 08:38:43 AM 35.9597 -114.9536 327° Northwest 206 237 6,000 -541 Descending Los Angeles Center
Thu 08:39:37 AM 36.0039 -114.9953 323° Northwest 188 216 5,500 -632 Descending Los Angeles Center
Thu 08:40:37 AM 36.0478 -115.0286 328° Northwest 176 203 4,800 -694 Descending Los Angeles Center
Thu 08:41:38 AM 36.0878 -115.0633 325° Northwest 177 204 4,100 -595 Descending Los Angeles Center
Thu 08:42:38 AM 36.1289 -115.1028 322° Northwest 163 188 3,600 -298 Descending Los Angeles Center
Thu 08:43:39 AM 36.1617 -115.1347 322° Northwest 150 173 3,500 -443 Descending Los Angeles Center
Thu 08:44:40 AM 36.1858 -115.1667 313° West 121 139 2,700 -667 Descending Los Angeles Center
Thu 08:45:45 AM 36.2100 -115.1919 320° Northwest 128 147 2,100 -554 Descending Los Angeles Center
Thu 08:47:00 AM 36.2107 -115.1944 North  Level Estimated
Thu 08:54:00 AM 36.2107 -115.1944 North  Level Estimated
Thu 08:55:00 AM 36.2107 -115.1944 North  Level Estimated
Thu 08:56:00 AM 36.2107 -115.1944 North  Level Estimated
Thu 08:57:00 AM 36.2107 -115.1944 North  Level Estimated
Thu 08:58:00 AM 36.2107 -115.1944 North  Level Estimated
Thu 08:59:00 AM 36.2107 -115.1944 North  Level Estimated

Login

Don't have an account? Register now (free) for customized features, flight alerts, and more!